<?xml version="1.0" encoding="utf-8"?>
<gpx xmlns:xsi="http://www.w3.org/2001/XMLSchema-instance" xmlns:xsd="http://www.w3.org/2001/XMLSchema" version="1.1" creator="Shapelink.com" xmlns="http://www.topografix.com/GPX/1/1" xmlns:gpxtpx="http://www.garmin.com/xmlschemas/TrackPointExtension/v1">
  <metadata>
    <name>Cykling - CX 2.95 km, 2014-03-27</name>
    <desc></desc>
    <author><name>Alexander Engvall</name></author> 
    <time>2014-03-27T09:28:49Z</time>
  </metadata>
  <trk>
    <name>Cykling - CX 2.95 km, 2014-03-27</name>
    <trkseg>
      <trkpt lat="59.314242" lon="18.064809">
        <ele>35</ele>
        <time>2014-03-27T09:28:49Z</time>
      </trkpt>
      <trkpt lat="59.314358" lon="18.064684">
        <ele>35.4</ele>
        <time>2014-03-27T09:28:53Z</time>
      </trkpt>
      <trkpt lat="59.314387" lon="18.064678">
        <ele>35.4</ele>
        <time>2014-03-27T09:28:54Z</time>
      </trkpt>
      <trkpt lat="59.314421" lon="18.064667">
        <ele>35.5</ele>
        <time>2014-03-27T09:28:55Z</time>
      </trkpt>
      <trkpt lat="59.314455" lon="18.064663">
        <ele>35.6</ele>
        <time>2014-03-27T09:28:56Z</time>
      </trkpt>
      <trkpt lat="59.314494" lon="18.064656">
        <ele>35.7</ele>
        <time>2014-03-27T09:28:57Z</time>
      </trkpt>
      <trkpt lat="59.314534" lon="18.06465">
        <ele>35.8</ele>
        <time>2014-03-27T09:28:58Z</time>
      </trkpt>
      <trkpt lat="59.314574" lon="18.064643">
        <ele>35.9</ele>
        <time>2014-03-27T09:28:59Z</time>
      </trkpt>
      <trkpt lat="59.314611" lon="18.064631">
        <ele>36</ele>
        <time>2014-03-27T09:29:00Z</time>
      </trkpt>
      <trkpt lat="59.314648" lon="18.064616">
        <ele>36</ele>
        <time>2014-03-27T09:29:01Z</time>
      </trkpt>
      <trkpt lat="59.314685" lon="18.064603">
        <ele>36.1</ele>
        <time>2014-03-27T09:29:02Z</time>
      </trkpt>
      <trkpt lat="59.31473" lon="18.064588">
        <ele>36.2</ele>
        <time>2014-03-27T09:29:03Z</time>
      </trkpt>
      <trkpt lat="59.314772" lon="18.064588">
        <ele>36.2</ele>
        <time>2014-03-27T09:29:04Z</time>
      </trkpt>
      <trkpt lat="59.314817" lon="18.064555">
        <ele>36.3</ele>
        <time>2014-03-27T09:29:05Z</time>
      </trkpt>
      <trkpt lat="59.314851" lon="18.064514">
        <ele>36.3</ele>
        <time>2014-03-27T09:29:06Z</time>
      </trkpt>
      <trkpt lat="59.314889" lon="18.064467">
        <ele>36.4</ele>
        <time>2014-03-27T09:29:07Z</time>
      </trkpt>
      <trkpt lat="59.314934" lon="18.064442">
        <ele>36.5</ele>
        <time>2014-03-27T09:29:08Z</time>
      </trkpt>
      <trkpt lat="59.314976" lon="18.064425">
        <ele>36.6</ele>
        <time>2014-03-27T09:29:09Z</time>
      </trkpt>
      <trkpt lat="59.315015" lon="18.064407">
        <ele>36.6</ele>
        <time>2014-03-27T09:29:10Z</time>
      </trkpt>
      <trkpt lat="59.315053" lon="18.06438">
        <ele>36.7</ele>
        <time>2014-03-27T09:29:11Z</time>
      </trkpt>
      <trkpt lat="59.31509" lon="18.064358">
        <ele>36.8</ele>
        <time>2014-03-27T09:29:12Z</time>
      </trkpt>
      <trkpt lat="59.315124" lon="18.06434">
        <ele>36.8</ele>
        <time>2014-03-27T09:29:13Z</time>
      </trkpt>
      <trkpt lat="59.315148" lon="18.064333">
        <ele>36.9</ele>
        <time>2014-03-27T09:29:14Z</time>
      </trkpt>
      <trkpt lat="59.315164" lon="18.064325">
        <ele>36.9</ele>
        <time>2014-03-27T09:29:15Z</time>
      </trkpt>
      <trkpt lat="59.315173" lon="18.064316">
        <ele>36.9</ele>
        <time>2014-03-27T09:29:16Z</time>
      </trkpt>
      <trkpt lat="59.315177" lon="18.06431">
        <ele>36.9</ele>
        <time>2014-03-27T09:29:17Z</time>
      </trkpt>
      <trkpt lat="59.315386" lon="18.064149">
        <ele>37.5</ele>
        <time>2014-03-27T09:29:35Z</time>
      </trkpt>
      <trkpt lat="59.315408" lon="18.064135">
        <ele>37.5</ele>
        <time>2014-03-27T09:29:36Z</time>
      </trkpt>
      <trkpt lat="59.315439" lon="18.064122">
        <ele>37.6</ele>
        <time>2014-03-27T09:29:37Z</time>
      </trkpt>
      <trkpt lat="59.31547" lon="18.064111">
        <ele>37.7</ele>
        <time>2014-03-27T09:29:38Z</time>
      </trkpt>
      <trkpt lat="59.315512" lon="18.0641">
        <ele>37.7</ele>
        <time>2014-03-27T09:29:39Z</time>
      </trkpt>
      <trkpt lat="59.315554" lon="18.064087">
        <ele>37.8</ele>
        <time>2014-03-27T09:29:40Z</time>
      </trkpt>
      <trkpt lat="59.315593" lon="18.064077">
        <ele>37.9</ele>
        <time>2014-03-27T09:29:41Z</time>
      </trkpt>
      <trkpt lat="59.315629" lon="18.064064">
        <ele>38</ele>
        <time>2014-03-27T09:29:42Z</time>
      </trkpt>
      <trkpt lat="59.315669" lon="18.064051">
        <ele>38.1</ele>
        <time>2014-03-27T09:29:43Z</time>
      </trkpt>
      <trkpt lat="59.31572" lon="18.064036">
        <ele>38.1</ele>
        <time>2014-03-27T09:29:44Z</time>
      </trkpt>
      <trkpt lat="59.315772" lon="18.064024">
        <ele>38.2</ele>
        <time>2014-03-27T09:29:45Z</time>
      </trkpt>
      <trkpt lat="59.315822" lon="18.06401">
        <ele>38.3</ele>
        <time>2014-03-27T09:29:46Z</time>
      </trkpt>
      <trkpt lat="59.315873" lon="18.063991">
        <ele>38.4</ele>
        <time>2014-03-27T09:29:47Z</time>
      </trkpt>
      <trkpt lat="59.31592" lon="18.06396">
        <ele>38.5</ele>
        <time>2014-03-27T09:29:48Z</time>
      </trkpt>
      <trkpt lat="59.315967" lon="18.063922">
        <ele>38.6</ele>
        <time>2014-03-27T09:29:49Z</time>
      </trkpt>
      <trkpt lat="59.316008" lon="18.063896">
        <ele>38.7</ele>
        <time>2014-03-27T09:29:50Z</time>
      </trkpt>
      <trkpt lat="59.31605" lon="18.063865">
        <ele>38.7</ele>
        <time>2014-03-27T09:29:51Z</time>
      </trkpt>
      <trkpt lat="59.316094" lon="18.063843">
        <ele>38.8</ele>
        <time>2014-03-27T09:29:52Z</time>
      </trkpt>
      <trkpt lat="59.316137" lon="18.063815">
        <ele>38.9</ele>
        <time>2014-03-27T09:29:53Z</time>
      </trkpt>
      <trkpt lat="59.316188" lon="18.063793">
        <ele>38.9</ele>
        <time>2014-03-27T09:29:54Z</time>
      </trkpt>
      <trkpt lat="59.316243" lon="18.063771">
        <ele>39</ele>
        <time>2014-03-27T09:29:55Z</time>
      </trkpt>
      <trkpt lat="59.316303" lon="18.063746">
        <ele>39.1</ele>
        <time>2014-03-27T09:29:56Z</time>
      </trkpt>
      <trkpt lat="59.316356" lon="18.063729">
        <ele>39.1</ele>
        <time>2014-03-27T09:29:57Z</time>
      </trkpt>
      <trkpt lat="59.316417" lon="18.063709">
        <ele>39.2</ele>
        <time>2014-03-27T09:29:58Z</time>
      </trkpt>
      <trkpt lat="59.316475" lon="18.063684">
        <ele>39.2</ele>
        <time>2014-03-27T09:29:59Z</time>
      </trkpt>
      <trkpt lat="59.316536" lon="18.063649">
        <ele>39.3</ele>
        <time>2014-03-27T09:30:00Z</time>
      </trkpt>
      <trkpt lat="59.316589" lon="18.063619">
        <ele>39.3</ele>
        <time>2014-03-27T09:30:01Z</time>
      </trkpt>
      <trkpt lat="59.316646" lon="18.063586">
        <ele>39.3</ele>
        <time>2014-03-27T09:30:02Z</time>
      </trkpt>
      <trkpt lat="59.316707" lon="18.063536">
        <ele>39.3</ele>
        <time>2014-03-27T09:30:03Z</time>
      </trkpt>
      <trkpt lat="59.316752" lon="18.0635">
        <ele>39.2</ele>
        <time>2014-03-27T09:30:04Z</time>
      </trkpt>
      <trkpt lat="59.3168" lon="18.063463">
        <ele>39.2</ele>
        <time>2014-03-27T09:30:05Z</time>
      </trkpt>
      <trkpt lat="59.316846" lon="18.063436">
        <ele>39.2</ele>
        <time>2014-03-27T09:30:06Z</time>
      </trkpt>
      <trkpt lat="59.316901" lon="18.063415">
        <ele>39.2</ele>
        <time>2014-03-27T09:30:07Z</time>
      </trkpt>
      <trkpt lat="59.31701" lon="18.063375">
        <ele>39.1</ele>
        <time>2014-03-27T09:30:09Z</time>
      </trkpt>
      <trkpt lat="59.317072" lon="18.06335">
        <ele>39</ele>
        <time>2014-03-27T09:30:10Z</time>
      </trkpt>
      <trkpt lat="59.317123" lon="18.063328">
        <ele>38.8</ele>
        <time>2014-03-27T09:30:11Z</time>
      </trkpt>
      <trkpt lat="59.317173" lon="18.063304">
        <ele>38.5</ele>
        <time>2014-03-27T09:30:12Z</time>
      </trkpt>
      <trkpt lat="59.317219" lon="18.063285">
        <ele>38.3</ele>
        <time>2014-03-27T09:30:13Z</time>
      </trkpt>
      <trkpt lat="59.317265" lon="18.063261">
        <ele>38</ele>
        <time>2014-03-27T09:30:14Z</time>
      </trkpt>
      <trkpt lat="59.317308" lon="18.063244">
        <ele>37.8</ele>
        <time>2014-03-27T09:30:15Z</time>
      </trkpt>
      <trkpt lat="59.317352" lon="18.063225">
        <ele>37.5</ele>
        <time>2014-03-27T09:30:16Z</time>
      </trkpt>
      <trkpt lat="59.317383" lon="18.063196">
        <ele>37.4</ele>
        <time>2014-03-27T09:30:17Z</time>
      </trkpt>
      <trkpt lat="59.317408" lon="18.063202">
        <ele>37.2</ele>
        <time>2014-03-27T09:30:18Z</time>
      </trkpt>
      <trkpt lat="59.317471" lon="18.063217">
        <ele>37</ele>
        <time>2014-03-27T09:30:20Z</time>
      </trkpt>
      <trkpt lat="59.317502" lon="18.063232">
        <ele>36.9</ele>
        <time>2014-03-27T09:30:21Z</time>
      </trkpt>
      <trkpt lat="59.317535" lon="18.06332">
        <ele>36.8</ele>
        <time>2014-03-27T09:30:22Z</time>
      </trkpt>
      <trkpt lat="59.31756" lon="18.0634">
        <ele>36.8</ele>
        <time>2014-03-27T09:30:23Z</time>
      </trkpt>
      <trkpt lat="59.317612" lon="18.063501">
        <ele>36.6</ele>
        <time>2014-03-27T09:30:24Z</time>
      </trkpt>
      <trkpt lat="59.31765" lon="18.063523">
        <ele>36.4</ele>
        <time>2014-03-27T09:30:25Z</time>
      </trkpt>
      <trkpt lat="59.317679" lon="18.063502">
        <ele>36.3</ele>
        <time>2014-03-27T09:30:26Z</time>
      </trkpt>
      <trkpt lat="59.317714" lon="18.063477">
        <ele>36.1</ele>
        <time>2014-03-27T09:30:27Z</time>
      </trkpt>
      <trkpt lat="59.31776" lon="18.063456">
        <ele>35.8</ele>
        <time>2014-03-27T09:30:28Z</time>
      </trkpt>
      <trkpt lat="59.317807" lon="18.063426">
        <ele>35.6</ele>
        <time>2014-03-27T09:30:29Z</time>
      </trkpt>
      <trkpt lat="59.317851" lon="18.063395">
        <ele>35.3</ele>
        <time>2014-03-27T09:30:30Z</time>
      </trkpt>
      <trkpt lat="59.317898" lon="18.063371">
        <ele>35.1</ele>
        <time>2014-03-27T09:30:31Z</time>
      </trkpt>
      <trkpt lat="59.317946" lon="18.063349">
        <ele>35</ele>
        <time>2014-03-27T09:30:32Z</time>
      </trkpt>
      <trkpt lat="59.317992" lon="18.063333">
        <ele>35</ele>
        <time>2014-03-27T09:30:33Z</time>
      </trkpt>
      <trkpt lat="59.318045" lon="18.0633">
        <ele>35.1</ele>
        <time>2014-03-27T09:30:34Z</time>
      </trkpt>
      <trkpt lat="59.318098" lon="18.063287">
        <ele>35.1</ele>
        <time>2014-03-27T09:30:35Z</time>
      </trkpt>
      <trkpt lat="59.318268" lon="18.06321">
        <ele>35.1</ele>
        <time>2014-03-27T09:30:38Z</time>
      </trkpt>
      <trkpt lat="59.318322" lon="18.063188">
        <ele>35.2</ele>
        <time>2014-03-27T09:30:39Z</time>
      </trkpt>
      <trkpt lat="59.318419" lon="18.063138">
        <ele>35.2</ele>
        <time>2014-03-27T09:30:41Z</time>
      </trkpt>
      <trkpt lat="59.318463" lon="18.063104">
        <ele>35.1</ele>
        <time>2014-03-27T09:30:42Z</time>
      </trkpt>
      <trkpt lat="59.318501" lon="18.063069">
        <ele>35.1</ele>
        <time>2014-03-27T09:30:43Z</time>
      </trkpt>
      <trkpt lat="59.318538" lon="18.063034">
        <ele>35.1</ele>
        <time>2014-03-27T09:30:44Z</time>
      </trkpt>
      <trkpt lat="59.318575" lon="18.063003">
        <ele>35.1</ele>
        <time>2014-03-27T09:30:45Z</time>
      </trkpt>
      <trkpt lat="59.318605" lon="18.062984">
        <ele>35.1</ele>
        <time>2014-03-27T09:30:46Z</time>
      </trkpt>
      <trkpt lat="59.318642" lon="18.062964">
        <ele>35</ele>
        <time>2014-03-27T09:30:48Z</time>
      </trkpt>
      <trkpt lat="59.31867" lon="18.062969">
        <ele>35.1</ele>
        <time>2014-03-27T09:30:49Z</time>
      </trkpt>
      <trkpt lat="59.318733" lon="18.063107">
        <ele>35.2</ele>
        <time>2014-03-27T09:30:53Z</time>
      </trkpt>
      <trkpt lat="59.318776" lon="18.063298">
        <ele>35.6</ele>
        <time>2014-03-27T09:30:56Z</time>
      </trkpt>
      <trkpt lat="59.318789" lon="18.063382">
        <ele>35.7</ele>
        <time>2014-03-27T09:30:57Z</time>
      </trkpt>
      <trkpt lat="59.318808" lon="18.063479">
        <ele>35.9</ele>
        <time>2014-03-27T09:30:58Z</time>
      </trkpt>
      <trkpt lat="59.318843" lon="18.063662">
        <ele>36.3</ele>
        <time>2014-03-27T09:30:59Z</time>
      </trkpt>
      <trkpt lat="59.318979" lon="18.064265">
        <ele>37.3</ele>
        <time>2014-03-27T09:31:01Z</time>
      </trkpt>
      <trkpt lat="59.319007" lon="18.064434">
        <ele>37.5</ele>
        <time>2014-03-27T09:31:02Z</time>
      </trkpt>
      <trkpt lat="59.31903" lon="18.06459">
        <ele>37.7</ele>
        <time>2014-03-27T09:31:03Z</time>
      </trkpt>
      <trkpt lat="59.319047" lon="18.064737">
        <ele>37.9</ele>
        <time>2014-03-27T09:31:04Z</time>
      </trkpt>
      <trkpt lat="59.319064" lon="18.064873">
        <ele>38.1</ele>
        <time>2014-03-27T09:31:05Z</time>
      </trkpt>
      <trkpt lat="59.319082" lon="18.06501">
        <ele>38.3</ele>
        <time>2014-03-27T09:31:06Z</time>
      </trkpt>
      <trkpt lat="59.319191" lon="18.065893">
        <ele>38.8</ele>
        <time>2014-03-27T09:31:12Z</time>
      </trkpt>
      <trkpt lat="59.319209" lon="18.066044">
        <ele>38.7</ele>
        <time>2014-03-27T09:31:13Z</time>
      </trkpt>
      <trkpt lat="59.319331" lon="18.066893">
        <ele>38.4</ele>
        <time>2014-03-27T09:31:19Z</time>
      </trkpt>
      <trkpt lat="59.319342" lon="18.06702">
        <ele>38.3</ele>
        <time>2014-03-27T09:31:20Z</time>
      </trkpt>
      <trkpt lat="59.319441" lon="18.06771">
        <ele>38.3</ele>
        <time>2014-03-27T09:31:26Z</time>
      </trkpt>
      <trkpt lat="59.319451" lon="18.067809">
        <ele>38.3</ele>
        <time>2014-03-27T09:31:27Z</time>
      </trkpt>
      <trkpt lat="59.319462" lon="18.06788">
        <ele>38.3</ele>
        <time>2014-03-27T09:31:28Z</time>
      </trkpt>
      <trkpt lat="59.319476" lon="18.067926">
        <ele>38.3</ele>
        <time>2014-03-27T09:31:29Z</time>
      </trkpt>
      <trkpt lat="59.319503" lon="18.068006">
        <ele>38.3</ele>
        <time>2014-03-27T09:31:30Z</time>
      </trkpt>
      <trkpt lat="59.319522" lon="18.068062">
        <ele>38.3</ele>
        <time>2014-03-27T09:31:31Z</time>
      </trkpt>
      <trkpt lat="59.31954" lon="18.068118">
        <ele>38.4</ele>
        <time>2014-03-27T09:31:34Z</time>
      </trkpt>
      <trkpt lat="59.319559" lon="18.068174">
        <ele>38.4</ele>
        <time>2014-03-27T09:31:35Z</time>
      </trkpt>
      <trkpt lat="59.319592" lon="18.068274">
        <ele>38.4</ele>
        <time>2014-03-27T09:32:05Z</time>
      </trkpt>
      <trkpt lat="59.31961" lon="18.06833">
        <ele>38.3</ele>
        <time>2014-03-27T09:32:06Z</time>
      </trkpt>
      <trkpt lat="59.319655" lon="18.068595">
        <ele>38.2</ele>
        <time>2014-03-27T09:32:09Z</time>
      </trkpt>
      <trkpt lat="59.319706" lon="18.068878">
        <ele>37.8</ele>
        <time>2014-03-27T09:32:12Z</time>
      </trkpt>
      <trkpt lat="59.31978" lon="18.069339">
        <ele>37.3</ele>
        <time>2014-03-27T09:32:17Z</time>
      </trkpt>
      <trkpt lat="59.319797" lon="18.069419">
        <ele>37.2</ele>
        <time>2014-03-27T09:32:18Z</time>
      </trkpt>
      <trkpt lat="59.319845" lon="18.069808">
        <ele>36.9</ele>
        <time>2014-03-27T09:32:22Z</time>
      </trkpt>
      <trkpt lat="59.319853" lon="18.0699">
        <ele>36.9</ele>
        <time>2014-03-27T09:32:23Z</time>
      </trkpt>
      <trkpt lat="59.319883" lon="18.070056">
        <ele>36.7</ele>
        <time>2014-03-27T09:32:25Z</time>
      </trkpt>
      <trkpt lat="59.319898" lon="18.07013">
        <ele>36.6</ele>
        <time>2014-03-27T09:32:26Z</time>
      </trkpt>
      <trkpt lat="59.319919" lon="18.070175">
        <ele>36.5</ele>
        <time>2014-03-27T09:32:27Z</time>
      </trkpt>
      <trkpt lat="59.319935" lon="18.070216">
        <ele>36.4</ele>
        <time>2014-03-27T09:32:28Z</time>
      </trkpt>
      <trkpt lat="59.319934" lon="18.070244">
        <ele>36.4</ele>
        <time>2014-03-27T09:32:29Z</time>
      </trkpt>
      <trkpt lat="59.319924" lon="18.070258">
        <ele>36.5</ele>
        <time>2014-03-27T09:32:31Z</time>
      </trkpt>
      <trkpt lat="59.319912" lon="18.070241">
        <ele>36.6</ele>
        <time>2014-03-27T09:32:37Z</time>
      </trkpt>
      <trkpt lat="59.319908" lon="18.070233">
        <ele>36.6</ele>
        <time>2014-03-27T09:32:38Z</time>
      </trkpt>
      <trkpt lat="59.319921" lon="18.070264">
        <ele>36.5</ele>
        <time>2014-03-27T09:32:42Z</time>
      </trkpt>
      <trkpt lat="59.319936" lon="18.070272">
        <ele>36.4</ele>
        <time>2014-03-27T09:32:44Z</time>
      </trkpt>
      <trkpt lat="59.319943" lon="18.070279">
        <ele>36.3</ele>
        <time>2014-03-27T09:32:45Z</time>
      </trkpt>
      <trkpt lat="59.31995" lon="18.070286">
        <ele>36.3</ele>
        <time>2014-03-27T09:32:46Z</time>
      </trkpt>
      <trkpt lat="59.319959" lon="18.070293">
        <ele>36.2</ele>
        <time>2014-03-27T09:32:47Z</time>
      </trkpt>
      <trkpt lat="59.319967" lon="18.070297">
        <ele>36.2</ele>
        <time>2014-03-27T09:32:48Z</time>
      </trkpt>
      <trkpt lat="59.319976" lon="18.070295">
        <ele>36.1</ele>
        <time>2014-03-27T09:32:49Z</time>
      </trkpt>
      <trkpt lat="59.320052" lon="18.070318">
        <ele>35.6</ele>
        <time>2014-03-27T09:32:55Z</time>
      </trkpt>
      <trkpt lat="59.320122" lon="18.070314">
        <ele>35</ele>
        <time>2014-03-27T09:33:01Z</time>
      </trkpt>
      <trkpt lat="59.32019" lon="18.070319">
        <ele>34.5</ele>
        <time>2014-03-27T09:33:07Z</time>
      </trkpt>
      <trkpt lat="59.32021" lon="18.070267">
        <ele>34.4</ele>
        <time>2014-03-27T09:33:10Z</time>
      </trkpt>
      <trkpt lat="59.320216" lon="18.070118">
        <ele>34.2</ele>
        <time>2014-03-27T09:33:14Z</time>
      </trkpt>
      <trkpt lat="59.320205" lon="18.07024">
        <ele>34.4</ele>
        <time>2014-03-27T09:33:18Z</time>
      </trkpt>
      <trkpt lat="59.320241" lon="18.070538">
        <ele>33.4</ele>
        <time>2014-03-27T09:33:22Z</time>
      </trkpt>
      <trkpt lat="59.320398" lon="18.07095">
        <ele>28.7</ele>
        <time>2014-03-27T09:33:27Z</time>
      </trkpt>
      <trkpt lat="59.32052" lon="18.071027">
        <ele>26.3</ele>
        <time>2014-03-27T09:33:30Z</time>
      </trkpt>
      <trkpt lat="59.320616" lon="18.071014">
        <ele>24.9</ele>
        <time>2014-03-27T09:33:32Z</time>
      </trkpt>
      <trkpt lat="59.320724" lon="18.07104">
        <ele>23.1</ele>
        <time>2014-03-27T09:33:34Z</time>
      </trkpt>
      <trkpt lat="59.320774" lon="18.071084">
        <ele>22.2</ele>
        <time>2014-03-27T09:33:35Z</time>
      </trkpt>
      <trkpt lat="59.320821" lon="18.071138">
        <ele>21.2</ele>
        <time>2014-03-27T09:33:36Z</time>
      </trkpt>
      <trkpt lat="59.320861" lon="18.071223">
        <ele>20.3</ele>
        <time>2014-03-27T09:33:37Z</time>
      </trkpt>
      <trkpt lat="59.320893" lon="18.071326">
        <ele>19.4</ele>
        <time>2014-03-27T09:33:38Z</time>
      </trkpt>
      <trkpt lat="59.320911" lon="18.071428">
        <ele>18.7</ele>
        <time>2014-03-27T09:33:39Z</time>
      </trkpt>
      <trkpt lat="59.320917" lon="18.071523">
        <ele>18.3</ele>
        <time>2014-03-27T09:33:40Z</time>
      </trkpt>
      <trkpt lat="59.320921" lon="18.07161">
        <ele>17.9</ele>
        <time>2014-03-27T09:33:41Z</time>
      </trkpt>
      <trkpt lat="59.32097" lon="18.071742">
        <ele>16.9</ele>
        <time>2014-03-27T09:33:43Z</time>
      </trkpt>
      <trkpt lat="59.321018" lon="18.071802">
        <ele>16.3</ele>
        <time>2014-03-27T09:33:44Z</time>
      </trkpt>
      <trkpt lat="59.321071" lon="18.071863">
        <ele>15.7</ele>
        <time>2014-03-27T09:33:45Z</time>
      </trkpt>
      <trkpt lat="59.321127" lon="18.071911">
        <ele>15.1</ele>
        <time>2014-03-27T09:33:46Z</time>
      </trkpt>
      <trkpt lat="59.321187" lon="18.071958">
        <ele>14.6</ele>
        <time>2014-03-27T09:33:47Z</time>
      </trkpt>
      <trkpt lat="59.321249" lon="18.072001">
        <ele>14.1</ele>
        <time>2014-03-27T09:33:48Z</time>
      </trkpt>
      <trkpt lat="59.321547" lon="18.072211">
        <ele>12.7</ele>
        <time>2014-03-27T09:33:53Z</time>
      </trkpt>
      <trkpt lat="59.321612" lon="18.072246">
        <ele>12.5</ele>
        <time>2014-03-27T09:33:54Z</time>
      </trkpt>
      <trkpt lat="59.32168" lon="18.072271">
        <ele>12.2</ele>
        <time>2014-03-27T09:33:55Z</time>
      </trkpt>
      <trkpt lat="59.321751" lon="18.072281">
        <ele>12</ele>
        <time>2014-03-27T09:33:56Z</time>
      </trkpt>
      <trkpt lat="59.321825" lon="18.072281">
        <ele>11.8</ele>
        <time>2014-03-27T09:33:57Z</time>
      </trkpt>
      <trkpt lat="59.321898" lon="18.072249">
        <ele>11.6</ele>
        <time>2014-03-27T09:33:58Z</time>
      </trkpt>
      <trkpt lat="59.321969" lon="18.07218">
        <ele>11.4</ele>
        <time>2014-03-27T09:33:59Z</time>
      </trkpt>
      <trkpt lat="59.322035" lon="18.072077">
        <ele>11.2</ele>
        <time>2014-03-27T09:34:00Z</time>
      </trkpt>
      <trkpt lat="59.322098" lon="18.071963">
        <ele>10.8</ele>
        <time>2014-03-27T09:34:01Z</time>
      </trkpt>
      <trkpt lat="59.322159" lon="18.071846">
        <ele>10.8</ele>
        <time>2014-03-27T09:34:02Z</time>
      </trkpt>
      <trkpt lat="59.322217" lon="18.071721">
        <ele>10.8</ele>
        <time>2014-03-27T09:34:03Z</time>
      </trkpt>
      <trkpt lat="59.322269" lon="18.071583">
        <ele>10.7</ele>
        <time>2014-03-27T09:34:04Z</time>
      </trkpt>
      <trkpt lat="59.322306" lon="18.071443">
        <ele>10.5</ele>
        <time>2014-03-27T09:34:05Z</time>
      </trkpt>
      <trkpt lat="59.32234" lon="18.071291">
        <ele>10.3</ele>
        <time>2014-03-27T09:34:06Z</time>
      </trkpt>
      <trkpt lat="59.322366" lon="18.071158">
        <ele>10.2</ele>
        <time>2014-03-27T09:34:07Z</time>
      </trkpt>
      <trkpt lat="59.322423" lon="18.070741">
        <ele>9.8</ele>
        <time>2014-03-27T09:34:10Z</time>
      </trkpt>
      <trkpt lat="59.322406" lon="18.070123">
        <ele>8.9</ele>
        <time>2014-03-27T09:34:14Z</time>
      </trkpt>
      <trkpt lat="59.322394" lon="18.069982">
        <ele>8.7</ele>
        <time>2014-03-27T09:34:15Z</time>
      </trkpt>
      <trkpt lat="59.322376" lon="18.069574">
        <ele>8.3</ele>
        <time>2014-03-27T09:34:18Z</time>
      </trkpt>
      <trkpt lat="59.322387" lon="18.069418">
        <ele>8.3</ele>
        <time>2014-03-27T09:34:19Z</time>
      </trkpt>
      <trkpt lat="59.322492" lon="18.069009">
        <ele>8.2</ele>
        <time>2014-03-27T09:34:22Z</time>
      </trkpt>
      <trkpt lat="59.322593" lon="18.068755">
        <ele>8</ele>
        <time>2014-03-27T09:34:24Z</time>
      </trkpt>
      <trkpt lat="59.322758" lon="18.06836">
        <ele>7.5</ele>
        <time>2014-03-27T09:34:27Z</time>
      </trkpt>
      <trkpt lat="59.322985" lon="18.067793">
        <ele>7.2</ele>
        <time>2014-03-27T09:34:32Z</time>
      </trkpt>
      <trkpt lat="59.323106" lon="18.067599">
        <ele>7.4</ele>
        <time>2014-03-27T09:34:34Z</time>
      </trkpt>
      <trkpt lat="59.32329" lon="18.067383">
        <ele>7.6</ele>
        <time>2014-03-27T09:34:37Z</time>
      </trkpt>
      <trkpt lat="59.323635" lon="18.066989">
        <ele>7.4</ele>
        <time>2014-03-27T09:34:43Z</time>
      </trkpt>
      <trkpt lat="59.323692" lon="18.06693">
        <ele>7.3</ele>
        <time>2014-03-27T09:34:44Z</time>
      </trkpt>
      <trkpt lat="59.32404" lon="18.066633">
        <ele>9.9</ele>
        <time>2014-03-27T09:34:50Z</time>
      </trkpt>
      <trkpt lat="59.324328" lon="18.066525">
        <ele>13.6</ele>
        <time>2014-03-27T09:34:55Z</time>
      </trkpt>
      <trkpt lat="59.324404" lon="18.066543">
        <ele>14.6</ele>
        <time>2014-03-27T09:34:56Z</time>
      </trkpt>
      <trkpt lat="59.324711" lon="18.066497">
        <ele>16.8</ele>
        <time>2014-03-27T09:35:00Z</time>
      </trkpt>
      <trkpt lat="59.324787" lon="18.066456">
        <ele>16.8</ele>
        <time>2014-03-27T09:35:01Z</time>
      </trkpt>
      <trkpt lat="59.32486" lon="18.066414">
        <ele>16.8</ele>
        <time>2014-03-27T09:35:02Z</time>
      </trkpt>
      <trkpt lat="59.32493" lon="18.066358">
        <ele>16.8</ele>
        <time>2014-03-27T09:35:03Z</time>
      </trkpt>
      <trkpt lat="59.325" lon="18.066311">
        <ele>16.8</ele>
        <time>2014-03-27T09:35:04Z</time>
      </trkpt>
      <trkpt lat="59.325134" lon="18.066182">
        <ele>16.8</ele>
        <time>2014-03-27T09:35:06Z</time>
      </trkpt>
      <trkpt lat="59.325437" lon="18.065776">
        <ele>16.4</ele>
        <time>2014-03-27T09:35:11Z</time>
      </trkpt>
      <trkpt lat="59.325743" lon="18.065312">
        <ele>14.7</ele>
        <time>2014-03-27T09:35:17Z</time>
      </trkpt>
      <trkpt lat="59.325977" lon="18.0649">
        <ele>15.4</ele>
        <time>2014-03-27T09:35:22Z</time>
      </trkpt>
      <trkpt lat="59.326026" lon="18.064815">
        <ele>15.8</ele>
        <time>2014-03-27T09:35:23Z</time>
      </trkpt>
      <trkpt lat="59.326258" lon="18.064496">
        <ele>17.5</ele>
        <time>2014-03-27T09:35:28Z</time>
      </trkpt>
      <trkpt lat="59.326343" lon="18.064621">
        <ele>15.2</ele>
        <time>2014-03-27T09:35:30Z</time>
      </trkpt>
      <trkpt lat="59.326399" lon="18.064795">
        <ele>13</ele>
        <time>2014-03-27T09:35:32Z</time>
      </trkpt>
      <trkpt lat="59.326492" lon="18.065059">
        <ele>10.1</ele>
        <time>2014-03-27T09:35:35Z</time>
      </trkpt>
      <trkpt lat="59.326553" lon="18.0652">
        <ele>8.6</ele>
        <time>2014-03-27T09:35:37Z</time>
      </trkpt>
      <trkpt lat="59.326653" lon="18.065274">
        <ele>7.2</ele>
        <time>2014-03-27T09:35:40Z</time>
      </trkpt>
      <trkpt lat="59.32677" lon="18.065166">
        <ele>6.4</ele>
        <time>2014-03-27T09:35:43Z</time>
      </trkpt>
      <trkpt lat="59.326804" lon="18.065107">
        <ele>6.2</ele>
        <time>2014-03-27T09:35:44Z</time>
      </trkpt>
      <trkpt lat="59.32684" lon="18.065045">
        <ele>6</ele>
        <time>2014-03-27T09:35:45Z</time>
      </trkpt>
      <trkpt lat="59.326879" lon="18.06499">
        <ele>5.6</ele>
        <time>2014-03-27T09:35:46Z</time>
      </trkpt>
      <trkpt lat="59.326917" lon="18.064927">
        <ele>5.2</ele>
        <time>2014-03-27T09:35:47Z</time>
      </trkpt>
      <trkpt lat="59.327036" lon="18.06472">
        <ele>3.7</ele>
        <time>2014-03-27T09:35:50Z</time>
      </trkpt>
      <trkpt lat="59.32736" lon="18.064177">
        <ele>3</ele>
        <time>2014-03-27T09:35:58Z</time>
      </trkpt>
      <trkpt lat="59.32769" lon="18.063653">
        <ele>3</ele>
        <time>2014-03-27T09:36:06Z</time>
      </trkpt>
      <trkpt lat="59.327978" lon="18.063173">
        <ele>3.7</ele>
        <time>2014-03-27T09:36:13Z</time>
      </trkpt>
      <trkpt lat="59.328135" lon="18.062895">
        <ele>5.1</ele>
        <time>2014-03-27T09:36:17Z</time>
      </trkpt>
      <trkpt lat="59.328181" lon="18.062716">
        <ele>5.4</ele>
        <time>2014-03-27T09:36:19Z</time>
      </trkpt>
      <trkpt lat="59.328267" lon="18.06231">
        <ele>5.8</ele>
        <time>2014-03-27T09:36:23Z</time>
      </trkpt>
      <trkpt lat="59.328292" lon="18.062078">
        <ele>5.7</ele>
        <time>2014-03-27T09:36:25Z</time>
      </trkpt>
      <trkpt lat="59.328296" lon="18.061604">
        <ele>6.1</ele>
        <time>2014-03-27T09:36:29Z</time>
      </trkpt>
      <trkpt lat="59.328299" lon="18.061482">
        <ele>6.2</ele>
        <time>2014-03-27T09:36:30Z</time>
      </trkpt>
      <trkpt lat="59.328326" lon="18.061373">
        <ele>6.4</ele>
        <time>2014-03-27T09:36:31Z</time>
      </trkpt>
      <trkpt lat="59.328357" lon="18.061303">
        <ele>6.6</ele>
        <time>2014-03-27T09:36:32Z</time>
      </trkpt>
      <trkpt lat="59.32838" lon="18.061259">
        <ele>6.7</ele>
        <time>2014-03-27T09:36:33Z</time>
      </trkpt>
      <trkpt lat="59.328398" lon="18.061221">
        <ele>6.7</ele>
        <time>2014-03-27T09:36:34Z</time>
      </trkpt>
      <trkpt lat="59.328689" lon="18.061106">
        <ele>7.6</ele>
        <time>2014-03-27T09:37:53Z</time>
      </trkpt>
      <trkpt lat="59.328717" lon="18.0611">
        <ele>7.7</ele>
        <time>2014-03-27T09:37:54Z</time>
      </trkpt>
      <trkpt lat="59.328858" lon="18.061075">
        <ele>8.6</ele>
        <time>2014-03-27T09:37:57Z</time>
      </trkpt>
      <trkpt lat="59.328902" lon="18.061042">
        <ele>8.9</ele>
        <time>2014-03-27T09:37:58Z</time>
      </trkpt>
      <trkpt lat="59.329087" lon="18.060879">
        <ele>10</ele>
        <time>2014-03-27T09:38:02Z</time>
      </trkpt>
      <trkpt lat="59.329143" lon="18.060844">
        <ele>10.4</ele>
        <time>2014-03-27T09:38:03Z</time>
      </trkpt>
      <trkpt lat="59.329398" lon="18.060652">
        <ele>11.6</ele>
        <time>2014-03-27T09:38:08Z</time>
      </trkpt>
      <trkpt lat="59.329447" lon="18.060607">
        <ele>11.8</ele>
        <time>2014-03-27T09:38:09Z</time>
      </trkpt>
      <trkpt lat="59.329503" lon="18.060581">
        <ele>12.1</ele>
        <time>2014-03-27T09:38:10Z</time>
      </trkpt>
      <trkpt lat="59.329556" lon="18.060553">
        <ele>12.3</ele>
        <time>2014-03-27T09:38:11Z</time>
      </trkpt>
      <trkpt lat="59.32961" lon="18.060522">
        <ele>12.7</ele>
        <time>2014-03-27T09:38:12Z</time>
      </trkpt>
      <trkpt lat="59.329712" lon="18.060457">
        <ele>13.5</ele>
        <time>2014-03-27T09:38:14Z</time>
      </trkpt>
      <trkpt lat="59.329759" lon="18.060413">
        <ele>13.9</ele>
        <time>2014-03-27T09:38:15Z</time>
      </trkpt>
      <trkpt lat="59.32992" lon="18.060303">
        <ele>15.5</ele>
        <time>2014-03-27T09:38:18Z</time>
      </trkpt>
      <trkpt lat="59.329969" lon="18.060247">
        <ele>15.9</ele>
        <time>2014-03-27T09:38:19Z</time>
      </trkpt>
      <trkpt lat="59.330182" lon="18.060169">
        <ele>17.8</ele>
        <time>2014-03-27T09:38:23Z</time>
      </trkpt>
      <trkpt lat="59.330276" lon="18.060065">
        <ele>18.4</ele>
        <time>2014-03-27T09:38:25Z</time>
      </trkpt>
      <trkpt lat="59.330322" lon="18.060033">
        <ele>18.8</ele>
        <time>2014-03-27T09:38:26Z</time>
      </trkpt>
      <trkpt lat="59.330362" lon="18.059994">
        <ele>19</ele>
        <time>2014-03-27T09:38:27Z</time>
      </trkpt>
      <trkpt lat="59.33048" lon="18.059851">
        <ele>19.2</ele>
        <time>2014-03-27T09:38:30Z</time>
      </trkpt>
      <trkpt lat="59.33051" lon="18.059806">
        <ele>19.1</ele>
        <time>2014-03-27T09:38:31Z</time>
      </trkpt>
      <trkpt lat="59.330603" lon="18.059697">
        <ele>19.1</ele>
        <time>2014-03-27T09:38:35Z</time>
      </trkpt>
      <trkpt lat="59.330806" lon="18.05933">
        <ele>18.7</ele>
        <time>2014-03-27T09:39:08Z</time>
      </trkpt>
      <trkpt lat="59.330885" lon="18.059256">
        <ele>18.7</ele>
        <time>2014-03-27T09:39:10Z</time>
      </trkpt>
      <trkpt lat="59.330931" lon="18.059226">
        <ele>18.7</ele>
        <time>2014-03-27T09:39:11Z</time>
      </trkpt>
      <trkpt lat="59.330981" lon="18.059203">
        <ele>18.8</ele>
        <time>2014-03-27T09:39:12Z</time>
      </trkpt>
      <trkpt lat="59.331037" lon="18.059178">
        <ele>18.9</ele>
        <time>2014-03-27T09:39:13Z</time>
      </trkpt>
      <trkpt lat="59.331282" lon="18.059008">
        <ele>19.1</ele>
        <time>2014-03-27T09:39:18Z</time>
      </trkpt>
      <trkpt lat="59.331452" lon="18.058852">
        <ele>19.9</ele>
        <time>2014-03-27T09:39:22Z</time>
      </trkpt>
      <trkpt lat="59.331498" lon="18.058793">
        <ele>20.2</ele>
        <time>2014-03-27T09:39:23Z</time>
      </trkpt>
      <trkpt lat="59.331772" lon="18.058439">
        <ele>23.2</ele>
        <time>2014-03-27T09:39:27Z</time>
      </trkpt>
      <trkpt lat="59.332083" lon="18.058107">
        <ele>27.3</ele>
        <time>2014-03-27T09:39:33Z</time>
      </trkpt>
      <trkpt lat="59.332122" lon="18.058024">
        <ele>27.5</ele>
        <time>2014-03-27T09:39:34Z</time>
      </trkpt>
      <trkpt lat="59.332217" lon="18.057901">
        <ele>27.7</ele>
        <time>2014-03-27T09:39:36Z</time>
      </trkpt>
      <trkpt lat="59.332358" lon="18.057751">
        <ele>27.6</ele>
        <time>2014-03-27T09:39:39Z</time>
      </trkpt>
      <trkpt lat="59.332443" lon="18.057674">
        <ele>27.5</ele>
        <time>2014-03-27T09:39:41Z</time>
      </trkpt>
      <trkpt lat="59.332524" lon="18.057687">
        <ele>27.2</ele>
        <time>2014-03-27T09:39:44Z</time>
      </trkpt>
      <trkpt lat="59.332631" lon="18.05802">
        <ele>26.6</ele>
        <time>2014-03-27T09:39:48Z</time>
      </trkpt>
      <trkpt lat="59.332781" lon="18.058436">
        <ele>26.5</ele>
        <time>2014-03-27T09:39:54Z</time>
      </trkpt>
      <trkpt lat="59.332864" lon="18.058614">
        <ele>26.8</ele>
        <time>2014-03-27T09:39:57Z</time>
      </trkpt>
      <trkpt lat="59.332895" lon="18.058675">
        <ele>26.9</ele>
        <time>2014-03-27T09:39:58Z</time>
      </trkpt>
    </trkseg>
  </trk>
</gpx>